| time (UTC) | temp C | wind direction | speed KPH | gust KPH | rain 1hr cm | rain 24hr cm | rain mn cm | humidity % | barometer mb |
| 20260507002002 | 9 | 4 | 9.7 | 252.7 | 0.00 | 0.00 | 0.00 | 9 | 1002.1 |
| 20260507001002 | 10 | 354 | 11.3 | 157.7 | 0.00 | 0.00 | 0.00 | 9 | 1002.0 |
| 20260507000002 | 10 | 354 | 11.3 | 98.2 | 0.00 | 0.00 | 0.00 | 9 | 1002.2 |
| 20260506235003 | 10 | 354 | 11.3 | 98.2 | 0.00 | 0.00 | 0.00 | 9 | 1002.1 |
| 20260506234002 | 10 | 354 | 11.3 | 61.2 | 0.00 | 0.00 | 0.00 | 9 | 1002.0 |
| 20260506233002 | 10 | 354 | 11.3 | 38.6 | 0.00 | 0.00 | 0.00 | 9 | 1001.8 |
| 20260506232002 | 10 | 354 | 11.3 | 233.4 | 0.00 | 0.00 | 0.00 | 9 | 1001.7 |
| 20260506231002 | 11 | 351 | 9.7 | 233.4 | 0.00 | 0.00 | 0.00 | 9 | 1001.8 |
| 20260506230002 | 11 | 351 | 9.7 | 233.4 | 0.00 | 0.00 | 0.00 | 9 | 1001.8 |
| 20260506225002 | 11 | 351 | 9.7 | 233.4 | 0.00 | 0.00 | 0.00 | 9 | 1001.9 |
| 20260506224002 | 11 | 351 | 9.7 | 233.4 | 0.00 | 0.00 | 0.00 | 9 | 1001.8 |
| 20260506223002 | 11 | 351 | 9.7 | 233.4 | 0.00 | 0.00 | 0.00 | 9 | 1001.7 |
| 20260506222002 | 11 | 351 | 9.7 | 233.4 | 0.00 | 0.00 | 0.00 | 9 | 1001.7 |
| 20260506221002 | 11 | 351 | 9.7 | 1458.1 | 0.00 | 0.00 | 0.00 | 9 | 1001.7 |
| 20260506220002 | 12 | 352 | 12.9 | 906.1 | 0.00 | 0.00 | 0.00 | 8 | 1001.6 |
| 20260506215001 | 12 | 352 | 12.9 | 563.3 | 0.00 | 0.00 | 0.00 | 8 | 1001.6 |
| 20260506214003 | 12 | 352 | 12.9 | 563.3 | 0.00 | 0.00 | 0.00 | 8 | 1001.6 |
| 20260506213002 | 12 | 352 | 12.9 | 350.8 | 0.00 | 0.00 | 0.00 | 8 | 1001.7 |
| 20260506212003 | 12 | 352 | 12.9 | 218.9 | 0.00 | 0.00 | 0.00 | 8 | 1001.6 |
| 20260506211003 | 12 | 352 | 12.9 | 218.9 | 0.00 | 0.00 | 0.00 | 8 | 1001.7 |
| 20260506210002 | 12 | 338 | 9.7 | 136.8 | 0.00 | 0.00 | 0.00 | 8 | 1001.8 |
| 20260506205002 | 12 | 338 | 9.7 | 136.8 | 0.00 | 0.00 | 0.00 | 8 | 1001.8 |
| 20260506204003 | 12 | 338 | 9.7 | 85.3 | 0.00 | 0.00 | 0.00 | 8 | 1001.8 |
| 20260506203003 | 12 | 338 | 9.7 | 85.3 | 0.00 | 0.00 | 0.00 | 8 | 1001.9 |
| 20260506202003 | 12 | 338 | 9.7 | 53.1 | 0.00 | 0.00 | 0.00 | 8 | 1001.9 |
| 20260506201002 | 12 | 338 | 9.7 | 33.8 | 0.00 | 0.00 | 0.00 | 8 | 1001.9 |
| 20260506200002 | 15 | 340 | 9.7 | 33.8 | 0.00 | 0.00 | 0.00 | 8 | 1002.2 |
| 20260506195002 | 15 | 340 | 9.7 | 33.8 | 0.00 | 0.00 | 0.00 | 8 | 1002.2 |
| 20260506194002 | 15 | 340 | 9.7 | 104.6 | 0.00 | 0.00 | 0.00 | 8 | 1001.3 |
| 20260506193002 | 15 | 340 | 9.7 | 104.6 | 0.00 | 0.00 | 0.00 | 8 | 1001.2 |
| 20260506192002 | 15 | 340 | 9.7 | 66.0 | 0.00 | 0.00 | 0.00 | 8 | 1001.2 |
| 20260506191002 | 15 | 340 | 9.7 | 41.8 | 0.00 | 0.00 | 0.00 | 8 | 1001.2 |
| 20260506190002 | 16 | 323 | 9.7 | 41.8 | 0.00 | 0.00 | 0.00 | 8 | 1001.0 |
| 20260506185002 | 16 | 323 | 9.7 | 41.8 | 0.00 | 0.00 | 0.00 | 8 | 1000.9 |
| 20260506184002 | 16 | 323 | 9.7 | 41.8 | 0.00 | 0.00 | 0.00 | 8 | 1000.8 |
| 20260506183004 | 16 | 323 | 9.7 | 78.9 | 0.00 | 0.00 | 0.00 | 8 | 1000.5 |
| 20260506182002 | 16 | 323 | 9.7 | 78.9 | 0.00 | 0.00 | 0.00 | 8 | 1000.2 |
| 20260506181002 | 16 | 323 | 9.7 | 49.9 | 0.00 | 0.00 | 0.00 | 8 | 1000.2 |
| 20260506180002 | 18 | 289 | 12.9 | 175.4 | 0.00 | 0.00 | 0.00 | 6 | 1000.0 |
| 20260506175002 | 18 | 289 | 12.9 | 175.4 | 0.00 | 0.00 | 0.00 | 6 | 999.9 |
| 20260506174002 | 18 | 289 | 12.9 | 175.4 | 0.00 | 0.00 | 0.00 | 6 | 999.9 |
| 20260506173002 | 18 | 289 | 12.9 | 175.4 | 0.00 | 0.00 | 0.00 | 6 | 1000.1 |
| 20260506172002 | 18 | 289 | 12.9 | 175.4 | 0.00 | 0.00 | 0.00 | 6 | 999.9 |
| 20260506171002 | 18 | 289 | 12.9 | 175.4 | 0.00 | 0.00 | 0.00 | 6 | 1000.0 |
| 20260506170003 | 18 | 289 | 12.9 | 175.4 | 0.00 | 0.00 | 0.00 | 6 | 999.8 |
| 20260506165002 | 19 | 267 | 16.1 | 1094.4 | 0.00 | 0.00 | 0.00 | 6 | 999.5 |
| 20260506164003 | 19 | 267 | 16.1 | 680.8 | 0.00 | 0.00 | 0.00 | 6 | 999.7 |
| 20260506163002 | 19 | 267 | 16.1 | 680.8 | 0.00 | 0.00 | 0.00 | 6 | 999.6 |
| 20260506162002 | 19 | 267 | 16.1 | 423.3 | 0.00 | 0.00 | 0.00 | 6 | 999.5 |
| 20260506161002 | 19 | 267 | 16.1 | 263.9 | 0.00 | 0.00 | 0.00 | 6 | 999.5 |
| 20260506160002 | 19 | 267 | 16.1 | 263.9 | 0.00 | 0.00 | 0.00 | 6 | 999.6 |
| 20260506155002 | 21 | 242 | 19.3 | 164.2 | 0.00 | 0.00 | 0.00 | 5 | 999.7 |
| 20260506154002 | 21 | 242 | 19.3 | 103.0 | 0.00 | 0.00 | 0.00 | 5 | 999.8 |
| 20260506153002 | 21 | 242 | 19.3 | 64.4 | 0.00 | 0.00 | 0.00 | 5 | 999.7 |
| 20260506152003 | 21 | 242 | 19.3 | 40.2 | 0.00 | 0.00 | 0.00 | 5 | 999.5 |
| 20260506151003 | 21 | 242 | 19.3 | 225.3 | 0.00 | 0.00 | 0.00 | 5 | 999.6 |
| 20260506150002 | 21 | 242 | 19.3 | 225.3 | 0.00 | 0.00 | 0.00 | 5 | 999.4 |
| 20260506145002 | 20 | 238 | 19.3 | 225.3 | 0.00 | 0.00 | 0.00 | 5 | 999.4 |
| 20260506144002 | 20 | 238 | 19.3 | 225.3 | 0.00 | 0.00 | 0.00 | 5 | 999.4 |
| 20260506143003 | 20 | 238 | 19.3 | 225.3 | 0.00 | 0.00 | 0.00 | 5 | 999.3 |
| 20260506142002 | 20 | 238 | 19.3 | 225.3 | 0.00 | 0.00 | 0.00 | 5 | 999.4 |
| 20260506141002 | 20 | 238 | 19.3 | 225.3 | 0.00 | 0.00 | 0.00 | 5 | 999.3 |
| 20260506140002 | 20 | 238 | 19.3 | 225.3 | 0.00 | 0.00 | 0.00 | 5 | 999.4 |
| 20260506135002 | 20 | 237 | 20.9 | 1403.3 | 0.00 | 0.00 | 0.00 | 5 | 999.5 |
| 20260506134001 | 20 | 237 | 20.9 | 872.3 | 0.00 | 0.00 | 0.00 | 5 | 999.4 |
| 20260506133002 | 20 | 237 | 20.9 | 872.3 | 0.00 | 0.00 | 0.00 | 5 | 999.3 |
| 20260506132002 | 20 | 237 | 20.9 | 542.3 | 0.00 | 0.00 | 0.00 | 5 | 999.2 |
| 20260506131002 | 20 | 237 | 20.9 | 338.0 | 0.00 | 0.00 | 0.00 | 5 | 999.2 |
| 20260506130003 | 20 | 237 | 20.9 | 210.8 | 0.00 | 0.00 | 0.00 | 5 | 999.4 |
| 20260506125002 | 20 | 239 | 20.9 | 132.0 | 0.00 | 0.00 | 0.00 | 5 | 999.3 |
| 20260506124002 | 20 | 239 | 20.9 | 132.0 | 0.00 | 0.00 | 0.00 | 5 | 999.3 |
| 20260506123002 | 20 | 239 | 20.9 | 82.1 | 0.00 | 0.00 | 0.00 | 5 | 999.5 |
| 20260506122002 | 20 | 239 | 20.9 | 51.5 | 0.00 | 0.00 | 0.00 | 5 | 999.5 |
| 20260506121003 | 20 | 239 | 20.9 | 233.4 | 0.00 | 0.00 | 0.00 | 5 | 999.5 |
| 20260506120002 | 20 | 239 | 20.9 | 233.4 | 0.00 | 0.00 | 0.00 | 5 | 999.5 |
| 20260506115002 | 20 | 239 | 20.9 | 233.4 | 0.00 | 0.00 | 0.00 | 5 | 999.5 |
| 20260506114003 | 18 | 241 | 19.3 | 233.4 | 0.00 | 0.00 | 0.00 | 6 | 999.5 |
| 20260506113002 | 18 | 241 | 19.3 | 233.4 | 0.00 | 0.00 | 0.00 | 6 | 999.5 |
| 20260506112003 | 18 | 241 | 19.3 | 233.4 | 0.00 | 0.00 | 0.00 | 6 | 999.5 |
| 20260506111002 | 18 | 241 | 19.3 | 233.4 | 0.00 | 0.00 | 0.00 | 6 | 999.5 |
| 20260506110004 | 18 | 241 | 19.3 | 1458.1 | 0.00 | 0.00 | 0.00 | 6 | 999.5 |
| 20260506105002 | 18 | 241 | 19.3 | 1458.1 | 0.00 | 0.00 | 0.00 | 6 | 999.5 |
| 20260506104002 | 17 | 240 | 19.3 | 906.1 | 0.00 | 0.00 | 0.00 | 6 | 999.5 |
| 20260506103002 | 17 | 240 | 19.3 | 906.1 | 0.00 | 0.00 | 0.00 | 6 | 999.4 |
| 20260506102002 | 17 | 240 | 19.3 | 563.3 | 0.00 | 0.00 | 0.00 | 6 | 999.5 |
| 20260506101003 | 17 | 240 | 19.3 | 563.3 | 0.00 | 0.00 | 0.00 | 6 | 999.4 |
| 20260506100002 | 17 | 240 | 19.3 | 350.8 | 0.00 | 0.00 | 0.00 | 6 | 999.3 |
| 20260506095002 | 17 | 240 | 19.3 | 350.8 | 0.00 | 0.00 | 0.00 | 6 | 999.4 |
| 20260506094002 | 15 | 241 | 14.5 | 218.9 | 0.00 | 0.00 | 0.00 | 7 | 999.4 |
| 20260506093002 | 15 | 241 | 14.5 | 218.9 | 0.00 | 0.00 | 0.00 | 7 | 999.4 |
| 20260506092002 | 15 | 241 | 14.5 | 136.8 | 0.00 | 0.00 | 0.00 | 7 | 999.3 |
| 20260506091002 | 15 | 241 | 14.5 | 85.3 | 0.00 | 0.00 | 0.00 | 7 | 999.5 |
| 20260506090002 | 15 | 241 | 14.5 | 85.3 | 0.00 | 0.00 | 0.00 | 7 | 999.4 |
| 20260506085003 | 15 | 241 | 14.5 | 53.1 | 0.00 | 0.00 | 0.00 | 7 | 999.4 |
| 20260506084002 | 12 | 226 | 9.7 | 53.1 | 0.00 | 0.00 | 0.00 | 8 | 999.5 |
| 20260506083002 | 12 | 226 | 9.7 | 167.4 | 0.00 | 0.00 | 0.00 | 8 | 999.5 |
| 20260506082002 | 12 | 226 | 9.7 | 104.6 | 0.00 | 0.00 | 0.00 | 8 | 999.3 |
| 20260506081002 | 12 | 226 | 9.7 | 66.0 | 0.00 | 0.00 | 0.00 | 8 | 999.3 |
| 20260506073002 | 11 | 120 | 3.2 | 175.4 | 0.00 | 0.00 | 0.00 | 8 | 999.4 |
| 20260506072002 | 11 | 120 | 3.2 | 175.4 | 0.00 | 0.00 | 0.00 | 8 | 999.4 |
| 20260506071002 | 11 | 120 | 3.2 | 175.4 | 0.00 | 0.00 | 0.00 | 8 | 999.3 |
| 20260506062003 | 10 | 49 | 6.4 | 1094.4 | 0.00 | 0.00 | 0.00 | 8 | 999.0 |
| 20260506061002 | 10 | 49 | 6.4 | 1094.4 | 0.00 | 0.00 | 0.00 | 8 | 998.9 |
| 20260506051002 | 10 | 53 | 14.5 | 164.2 | 0.00 | 0.00 | 0.00 | 9 | 999.1 |
| 20260506045002 | 10 | 53 | 14.5 | 103.0 | 0.00 | 0.00 | 0.00 | 9 | 999.0 |
| 20260506044002 | 10 | 53 | 14.5 | 64.4 | 0.00 | 0.00 | 0.00 | 9 | 998.7 |
| 20260506043002 | 10 | 35 | 12.9 | 40.2 | 0.00 | 0.00 | 0.00 | 8 | 998.5 |
| 20260506042002 | 10 | 35 | 12.9 | 191.5 | 0.00 | 0.00 | 0.00 | 8 | 998.1 |
| 20260506041002 | 10 | 35 | 12.9 | 191.5 | 0.00 | 0.00 | 0.00 | 8 | 998.2 |
| 20260506040003 | 10 | 35 | 12.9 | 191.5 | 0.00 | 0.00 | 0.00 | 8 | 998.6 |
| 20260506035001 | 10 | 35 | 12.9 | 191.5 | 0.00 | 0.00 | 0.00 | 8 | 998.6 |
| 20260506034003 | 10 | 35 | 12.9 | 191.5 | 0.00 | 0.00 | 0.00 | 8 | 998.7 |
| 20260506033002 | 10 | 39 | 12.9 | 191.5 | 0.00 | 0.00 | 0.00 | 8 | 998.9 |
| 20260506032002 | 10 | 39 | 12.9 | 191.5 | 0.00 | 0.00 | 0.00 | 8 | 998.8 |
| 20260506031002 | 10 | 39 | 12.9 | 1190.9 | 0.00 | 0.00 | 0.00 | 8 | 999.0 |
| 20260506030002 | 10 | 39 | 12.9 | 740.3 | 0.00 | 0.00 | 0.00 | 8 | 999.1 |
| 20260506025002 | 10 | 39 | 12.9 | 460.3 | 0.00 | 0.00 | 0.00 | 8 | 999.2 |
| 20260506024003 | 10 | 39 | 12.9 | 286.5 | 0.00 | 0.00 | 0.00 | 8 | 999.3 |
| 20260506023002 | 11 | 47 | 14.5 | 178.6 | 0.00 | 0.00 | 0.00 | 8 | 999.3 |
| 20260506022003 | 11 | 47 | 14.5 | 111.0 | 0.00 | 0.00 | 0.00 | 8 | 999.4 |
| 20260506021002 | 11 | 47 | 14.5 | 69.2 | 0.00 | 0.00 | 0.00 | 8 | 999.4 |
| 20260506020002 | 11 | 47 | 14.5 | 43.5 | 0.00 | 0.00 | 0.00 | 8 | 999.4 |
| 20260506015002 | 11 | 47 | 14.5 | 225.3 | 0.00 | 0.00 | 0.00 | 8 | 999.5 |
| 20260506014002 | 11 | 47 | 14.5 | 225.3 | 0.00 | 0.00 | 0.00 | 8 | 999.7 |
| 20260506013002 | 11 | 47 | 14.5 | 225.3 | 0.00 | 0.00 | 0.00 | 8 | 999.6 |
| 20260506012002 | 12 | 42 | 14.5 | 225.3 | 0.00 | 0.00 | 0.00 | 7 | 999.5 |
| 20260506011002 | 12 | 42 | 14.5 | 225.3 | 0.00 | 0.00 | 0.00 | 7 | 999.6 |
| 20260506010002 | 12 | 42 | 14.5 | 225.3 | 0.00 | 0.00 | 0.00 | 7 | 999.4 |
| 20260506005002 | 12 | 42 | 14.5 | 225.3 | 0.00 | 0.00 | 0.00 | 7 | 999.4 |
| 20260506004002 | 12 | 42 | 14.5 | 1403.3 | 0.00 | 0.00 | 0.00 | 7 | 999.3 |
| 20260506003002 | 12 | 42 | 14.5 | 1403.3 | 0.00 | 0.00 | 0.00 | 7 | 999.3 |